Time;durP1;ratioP1;P1;durP2;ratioP2;P2;SDS_P1;SDS_P2;PMS_P1;PMS_P2;Temp;Humidity;BMP_temperature;BMP_pressure;BME280_temperature;BME280_humidity;BME280_pressure;Samples;Min_cycle;Max_cycle;Signal;HPM_P1;HPM_P2
2022/03/08 00:01:06;;;;;;;20.17;12.07;;;;;;;;;;5095617;28;20032;-64
2022/03/08 00:03:32;;;;;;;25.05;12.18;;;;;;;;;;5091510;28;20111;-63
2022/03/08 00:05:58;;;;;;;21.38;12.15;;;;;;;;;;5094481;28;20442;-64
2022/03/08 00:08:24;;;;;;;20.88;11.75;;;;;;;;;;5102279;28;20035;-64
2022/03/08 00:10:51;;;;;;;23.25;12.63;;;;;;;;;;5106586;28;20483;-63
2022/03/08 00:13:17;;;;;;;21.42;12.32;;;;;;;;;;5107139;28;20031;-64
2022/03/08 00:15:43;;;;;;;21.83;12.77;;;;;;;;;;5107034;28;20032;-63
2022/03/08 00:18:09;;;;;;;21.42;12.75;;;;;;;;;;5093327;28;20024;-64
2022/03/08 00:20:35;;;;;;;20.67;12.25;;;;;;;;;;5095665;28;20044;-64
2022/03/08 00:23:01;;;;;;;21.77;12.93;;;;;;;;;;5077462;28;20028;-63
2022/03/08 00:25:28;;;;;;;22.33;13.48;;;;;;;;;;5094981;28;20031;-63
2022/03/08 00:27:54;;;;;;;25.42;13.45;;;;;;;;;;5089019;28;20059;-63
2022/03/08 00:30:21;;;;;;;25.63;13.77;;;;;;;;;;5091963;28;20059;-63
2022/03/08 00:32:48;;;;;;;23.35;13.40;;;;;;;;;;5094934;28;20024;-63
2022/03/08 00:35:14;;;;;;;22.80;12.75;;;;;;;;;;5095025;28;20036;-63
2022/03/08 00:37:41;;;;;;;22.50;12.55;;;;;;;;;;5097304;28;20099;-64
2022/03/08 00:40:08;;;;;;;23.95;13.07;;;;;;;;;;5098868;28;20068;-64
2022/03/08 00:42:34;;;;;;;22.52;12.50;;;;;;;;;;5095420;28;20476;-63
2022/03/08 00:45:00;;;;;;;21.60;12.90;;;;;;;;;;5079508;28;20043;-64
2022/03/08 00:47:26;;;;;;;25.17;13.52;;;;;;;;;;5107305;28;20023;-63
2022/03/08 00:49:52;;;;;;;28.55;14.40;;;;;;;;;;5103446;28;20062;-63
2022/03/08 00:52:18;;;;;;;27.00;13.68;;;;;;;;;;5081327;28;20030;-64
2022/03/08 00:54:44;;;;;;;25.10;14.02;;;;;;;;;;5096310;28;20144;-64
2022/03/08 00:57:11;;;;;;;23.95;13.50;;;;;;;;;;5096237;28;20083;-63
2022/03/08 00:59:37;;;;;;;23.33;12.13;;;;;;;;;;5098365;28;20370;-63
2022/03/08 01:02:03;;;;;;;20.30;11.55;;;;;;;;;;5098665;28;20047;-64
2022/03/08 01:04:29;;;;;;;21.65;12.27;;;;;;;;;;5098415;28;20181;-63
2022/03/08 01:06:55;;;;;;;24.33;11.10;;;;;;;;;;5097536;28;20133;-63
2022/03/08 01:09:22;;;;;;;21.75;12.15;;;;;;;;;;5076682;28;20036;-63
2022/03/08 01:11:48;;;;;;;19.95;11.63;;;;;;;;;;5097991;28;20035;-63
2022/03/08 01:14:14;;;;;;;23.70;13.20;;;;;;;;;;5089586;28;20024;-63
2022/03/08 01:16:40;;;;;;;21.35;12.35;;;;;;;;;;5104282;28;20043;-63
2022/03/08 01:19:07;;;;;;;22.40;12.38;;;;;;;;;;5098650;28;20034;-63
2022/03/08 01:21:36;;;;;;;22.70;12.57;;;;;;;;;;5095131;28;20048;-63
2022/03/08 01:24:03;;;;;;;20.42;11.85;;;;;;;;;;5112343;28;20028;-63
2022/03/08 01:26:29;;;;;;;22.88;12.82;;;;;;;;;;5098176;28;20475;-63
2022/03/08 01:28:56;;;;;;;21.75;11.27;;;;;;;;;;5098123;28;20051;-64
2022/03/08 01:31:22;;;;;;;19.73;11.68;;;;;;;;;;5098201;28;20034;-63
2022/03/08 01:33:49;;;;;;;20.70;12.15;;;;;;;;;;5096613;28;20030;-64
2022/03/08 01:36:15;;;;;;;21.95;11.85;;;;;;;;;;5076446;28;20472;-64
2022/03/08 01:38:41;;;;;;;21.70;12.80;;;;;;;;;;5097308;28;20020;-63
2022/03/08 01:41:07;;;;;;;23.48;12.35;;;;;;;;;;5098203;28;20119;-64
2022/03/08 01:43:33;;;;;;;24.00;11.73;;;;;;;;;;5097699;28;20417;-63
2022/03/08 01:45:59;;;;;;;22.52;11.77;;;;;;;;;;5097024;28;20098;-64
2022/03/08 01:48:25;;;;;;;24.42;12.18;;;;;;;;;;5092920;28;20112;-63
2022/03/08 01:50:52;;;;;;;23.67;11.65;;;;;;;;;;5097491;28;20028;-63
2022/03/08 01:53:18;;;;;;;20.65;10.73;;;;;;;;;;5097828;28;20032;-63
2022/03/08 01:55:44;;;;;;;22.00;11.68;;;;;;;;;;5097365;28;20036;-63
2022/03/08 01:58:10;;;;;;;26.70;12.20;;;;;;;;;;5097121;28;20024;-63
2022/03/08 02:00:36;;;;;;;26.38;12.07;;;;;;;;;;5093348;28;20048;-63
2022/03/08 02:03:02;;;;;;;20.85;11.57;;;;;;;;;;5096118;28;20370;-63
2022/03/08 02:05:28;;;;;;;21.35;12.60;;;;;;;;;;5097380;28;20024;-63
2022/03/08 02:07:55;;;;;;;21.38;11.35;;;;;;;;;;5096970;28;20473;-63
2022/03/08 02:10:21;;;;;;;24.17;12.02;;;;;;;;;;5097229;28;20024;-63
2022/03/08 02:12:47;;;;;;;23.55;12.15;;;;;;;;;;5077744;28;20039;-63
2022/03/08 02:15:22;;;;;;;21.85;11.43;;;;;;;;;;5110391;28;20035;-63
2022/03/08 02:17:49;;;;;;;21.85;10.90;;;;;;;;;;5078325;28;20027;-63
2022/03/08 02:20:15;;;;;;;22.58;12.02;;;;;;;;;;5097621;28;20036;-63
2022/03/08 02:22:42;;;;;;;23.73;12.90;;;;;;;;;;5099174;28;20492;-63
2022/03/08 02:25:09;;;;;;;22.15;11.57;;;;;;;;;;5107530;28;20067;-64
2022/03/08 02:27:38;;;;;;;21.95;12.10;;;;;;;;;;5092036;28;20526;-63
2022/03/08 02:30:04;;;;;;;23.67;12.90;;;;;;;;;;5119104;27;20043;-62
2022/03/08 02:32:30;;;;;;;22.77;11.65;;;;;;;;;;5089584;28;20138;-65
2022/03/08 02:35:03;;;;;;;20.63;12.05;;;;;;;;;;5101360;28;20460;-64
2022/03/08 02:37:36;;;;;;;21.40;11.88;;;;;;;;;;5096033;28;20040;-66
2022/03/08 02:40:03;;;;;;;21.40;12.13;;;;;;;;;;5096879;28;20055;-65
2022/03/08 02:42:29;;;;;;;25.95;12.43;;;;;;;;;;5092298;28;20036;-65
2022/03/08 02:44:55;;;;;;;23.13;12.07;;;;;;;;;;5096566;28;20036;-63
2022/03/08 02:47:21;;;;;;;23.52;11.95;;;;;;;;;;5096436;28;20035;-62
2022/03/08 02:49:47;;;;;;;22.08;11.38;;;;;;;;;;5096319;28;20043;-63
2022/03/08 02:52:13;;;;;;;18.40;10.98;;;;;;;;;;5096543;28;20109;-63
2022/03/08 02:54:39;;;;;;;25.70;12.00;;;;;;;;;;5093403;28;20028;-62
2022/03/08 02:57:05;;;;;;;22.10;11.57;;;;;;;;;;5094189;28;20024;-64
2022/03/08 02:59:31;;;;;;;21.00;11.52;;;;;;;;;;5096026;28;20102;-65
2022/03/08 03:01:57;;;;;;;20.83;12.18;;;;;;;;;;5095854;28;20544;-64
2022/03/08 03:04:23;;;;;;;19.30;10.95;;;;;;;;;;5096516;28;20032;-64
2022/03/08 03:06:49;;;;;;;24.48;12.65;;;;;;;;;;5093030;28;20031;-64
2022/03/08 03:09:15;;;;;;;19.77;11.40;;;;;;;;;;5093295;28;20089;-64
2022/03/08 03:11:41;;;;;;;23.35;12.05;;;;;;;;;;5095830;28;20445;-64
2022/03/08 03:14:07;;;;;;;22.85;11.30;;;;;;;;;;5104265;28;20020;-64
2022/03/08 03:16:33;;;;;;;19.35;11.50;;;;;;;;;;5088372;28;20388;-64
2022/03/08 03:18:59;;;;;;;19.75;11.35;;;;;;;;;;5077872;28;20049;-64
2022/03/08 03:21:25;;;;;;;21.77;12.48;;;;;;;;;;5091588;28;20040;-64
2022/03/08 03:23:51;;;;;;;21.15;11.38;;;;;;;;;;5095064;28;20107;-64
2022/03/08 03:26:17;;;;;;;20.08;11.15;;;;;;;;;;5096019;28;20024;-64
2022/03/08 03:28:43;;;;;;;23.67;11.52;;;;;;;;;;5095620;28;20059;-64
2022/03/08 03:31:09;;;;;;;19.77;11.82;;;;;;;;;;5096102;28;20034;-65
2022/03/08 03:33:35;;;;;;;20.92;11.80;;;;;;;;;;5092277;28;20036;-64
2022/03/08 03:36:01;;;;;;;18.00;9.70;;;;;;;;;;5094326;28;20020;-64
2022/03/08 03:38:27;;;;;;;20.27;9.75;;;;;;;;;;5095222;28;20086;-64
2022/03/08 03:40:53;;;;;;;20.88;10.80;;;;;;;;;;5100174;28;20071;-64
2022/03/08 03:43:19;;;;;;;21.55;12.40;;;;;;;;;;5105289;28;20650;-65
2022/03/08 03:45:45;;;;;;;21.83;11.82;;;;;;;;;;5093193;28;20024;-64
2022/03/08 03:48:11;;;;;;;19.83;11.55;;;;;;;;;;5092977;28;20421;-65
2022/03/08 03:50:37;;;;;;;20.30;11.95;;;;;;;;;;5095433;28;20028;-65
2022/03/08 03:53:03;;;;;;;21.15;11.68;;;;;;;;;;5095491;28;20032;-64
2022/03/08 03:55:29;;;;;;;21.65;11.63;;;;;;;;;;5095978;28;20089;-64
2022/03/08 03:57:55;;;;;;;21.10;11.85;;;;;;;;;;5094842;28;20469;-65
2022/03/08 04:00:21;;;;;;;18.73;11.30;;;;;;;;;;5091623;28;20114;-64
2022/03/08 04:02:47;;;;;;;17.35;10.68;;;;;;;;;;5094876;28;20071;-65
2022/03/08 04:05:14;;;;;;;20.75;11.25;;;;;;;;;;5078146;28;20595;-65
2022/03/08 04:07:40;;;;;;;22.00;11.07;;;;;;;;;;5095524;28;20536;-64
2022/03/08 04:10:07;;;;;;;18.92;11.35;;;;;;;;;;5094930;28;20028;-64
2022/03/08 04:12:33;;;;;;;20.60;11.85;;;;;;;;;;5093531;28;20024;-66
2022/03/08 04:14:59;;;;;;;21.92;12.13;;;;;;;;;;5114608;28;20102;-66
2022/03/08 04:17:25;;;;;;;20.00;11.32;;;;;;;;;;5099799;28;20179;-65
2022/03/08 04:19:51;;;;;;;19.40;10.13;;;;;;;;;;5103144;28;20407;-65
2022/03/08 04:22:17;;;;;;;20.05;11.50;;;;;;;;;;5108440;28;20039;-66
2022/03/08 04:24:43;;;;;;;20.35;11.55;;;;;;;;;;5096763;28;20028;-66
2022/03/08 04:27:09;;;;;;;19.98;11.43;;;;;;;;;;5096735;28;20047;-65
2022/03/08 04:29:35;;;;;;;21.42;11.13;;;;;;;;;;5098566;28;20126;-66
2022/03/08 04:32:01;;;;;;;18.85;11.30;;;;;;;;;;5099407;28;20093;-66
2022/03/08 04:34:27;;;;;;;20.08;10.52;;;;;;;;;;5099356;28;20459;-66
2022/03/08 04:36:53;;;;;;;21.92;11.90;;;;;;;;;;5097818;28;20028;-66
2022/03/08 04:39:19;;;;;;;20.83;12.13;;;;;;;;;;5104249;28;20039;-66
2022/03/08 04:41:45;;;;;;;20.67;10.73;;;;;;;;;;5112686;28;20039;-66
2022/03/08 04:44:11;;;;;;;20.80;10.95;;;;;;;;;;5100513;28;20027;-66
2022/03/08 04:46:37;;;;;;;17.98;10.88;;;;;;;;;;5081127;28;20058;-66
2022/03/08 04:49:03;;;;;;;20.00;11.13;;;;;;;;;;5099215;28;20094;-65
2022/03/08 04:51:29;;;;;;;21.40;12.25;;;;;;;;;;5107415;28;20043;-66
2022/03/08 04:53:55;;;;;;;20.13;11.73;;;;;;;;;;5113693;28;20114;-66
2022/03/08 04:56:21;;;;;;;16.08;9.85;;;;;;;;;;5099077;28;20111;-66
2022/03/08 04:58:47;;;;;;;18.02;10.43;;;;;;;;;;5102217;28;20077;-65
2022/03/08 05:01:14;;;;;;;18.48;11.07;;;;;;;;;;5107110;28;20481;-66
2022/03/08 05:03:40;;;;;;;21.17;11.35;;;;;;;;;;5110322;28;20024;-65
2022/03/08 05:06:06;;;;;;;20.42;11.73;;;;;;;;;;5078226;28;20046;-66
2022/03/08 05:08:32;;;;;;;18.48;10.60;;;;;;;;;;5098728;28;20434;-65
2022/03/08 05:10:58;;;;;;;17.80;10.93;;;;;;;;;;5080709;28;20066;-66
2022/03/08 05:13:25;;;;;;;19.40;11.90;;;;;;;;;;5100691;28;20350;-66
2022/03/08 05:15:51;;;;;;;20.73;11.40;;;;;;;;;;5110151;28;20027;-66
2022/03/08 05:18:18;;;;;;;20.17;12.05;;;;;;;;;;5096070;28;20106;-66
2022/03/08 05:20:44;;;;;;;22.60;12.32;;;;;;;;;;5097141;28;20079;-65
2022/03/08 05:23:10;;;;;;;19.45;10.65;;;;;;;;;;5079755;28;20723;-65
2022/03/08 05:25:36;;;;;;;21.25;11.98;;;;;;;;;;5098115;28;20039;-66
2022/03/08 05:28:02;;;;;;;20.95;10.73;;;;;;;;;;5097894;28;20077;-65
2022/03/08 05:30:28;;;;;;;22.02;11.63;;;;;;;;;;5092468;28;20071;-65
2022/03/08 05:32:55;;;;;;;19.35;11.05;;;;;;;;;;5097808;28;20493;-66
2022/03/08 05:35:21;;;;;;;19.33;11.52;;;;;;;;;;5098433;28;20396;-66
2022/03/08 05:37:47;;;;;;;18.40;10.77;;;;;;;;;;5080328;28;20028;-66
2022/03/08 05:40:13;;;;;;;18.40;10.65;;;;;;;;;;5098027;28;20502;-66
2022/03/08 05:42:39;;;;;;;20.70;11.63;;;;;;;;;;5094256;28;20040;-66
2022/03/08 05:45:09;;;;;;;18.83;11.68;;;;;;;;;;5102480;28;20024;-66
2022/03/08 05:47:36;;;;;;;19.13;10.80;;;;;;;;;;5107683;28;20046;-66
2022/03/08 05:50:02;;;;;;;19.85;11.35;;;;;;;;;;5109138;28;20491;-66
2022/03/08 05:52:28;;;;;;;19.70;11.77;;;;;;;;;;5109991;28;20011;-65
2022/03/08 05:54:54;;;;;;;20.52;12.00;;;;;;;;;;5110323;28;20024;-66
2022/03/08 05:57:20;;;;;;;19.45;11.65;;;;;;;;;;5109279;28;20492;-66
2022/03/08 05:59:49;;;;;;;22.92;12.45;;;;;;;;;;5110214;28;20496;-65
2022/03/08 06:02:15;;;;;;;19.42;11.20;;;;;;;;;;5108977;28;20473;-68
2022/03/08 06:04:41;;;;;;;19.67;10.73;;;;;;;;;;5110436;28;20023;-68
2022/03/08 06:07:07;;;;;;;20.25;11.70;;;;;;;;;;5103986;28;20038;-68
2022/03/08 06:09:33;;;;;;;21.27;11.85;;;;;;;;;;5109075;28;20055;-64
2022/03/08 06:12:00;;;;;;;19.50;11.82;;;;;;;;;;5096519;28;20039;-64
2022/03/08 06:14:26;;;;;;;22.70;11.90;;;;;;;;;;5108090;28;20023;-64
2022/03/08 06:16:52;;;;;;;18.73;10.68;;;;;;;;;;5101910;28;20028;-64
2022/03/08 06:19:18;;;;;;;20.85;12.52;;;;;;;;;;5097244;28;20024;-64
2022/03/08 06:21:45;;;;;;;22.13;13.75;;;;;;;;;;5075899;28;20520;-64
2022/03/08 06:24:12;;;;;;;24.27;13.38;;;;;;;;;;5099233;28;20024;-66
2022/03/08 06:26:38;;;;;;;23.70;13.18;;;;;;;;;;5111793;28;20032;-67
2022/03/08 06:29:04;;;;;;;21.48;13.15;;;;;;;;;;5110007;28;20079;-67
2022/03/08 06:31:30;;;;;;;20.45;12.43;;;;;;;;;;5092524;28;20396;-67
2022/03/08 06:33:56;;;;;;;23.05;12.90;;;;;;;;;;5110234;28;20020;-67
2022/03/08 06:36:22;;;;;;;21.60;13.32;;;;;;;;;;5109834;28;20023;-66
2022/03/08 06:38:48;;;;;;;22.92;11.95;;;;;;;;;;5096795;28;20472;-67
2022/03/08 06:41:14;;;;;;;24.20;14.50;;;;;;;;;;5096448;28;20040;-67
2022/03/08 06:43:40;;;;;;;26.95;16.25;;;;;;;;;;5096697;28;20039;-67
2022/03/08 06:46:07;;;;;;;29.02;16.63;;;;;;;;;;5096482;28;20023;-66
2022/03/08 06:48:33;;;;;;;24.75;15.73;;;;;;;;;;5092281;28;20049;-67
2022/03/08 06:50:59;;;;;;;25.35;16.10;;;;;;;;;;5106118;28;20461;-68
2022/03/08 06:53:25;;;;;;;25.02;15.45;;;;;;;;;;5109171;28;20106;-67
2022/03/08 06:55:51;;;;;;;23.85;14.25;;;;;;;;;;5109025;28;20758;-67
2022/03/08 06:58:17;;;;;;;24.17;14.23;;;;;;;;;;5108892;28;20105;-67
2022/03/08 07:00:43;;;;;;;20.17;12.10;;;;;;;;;;5113750;27;20054;-67
2022/03/08 07:03:09;;;;;;;20.65;11.75;;;;;;;;;;5118012;27;20073;-67
2022/03/08 07:05:36;;;;;;;20.67;12.20;;;;;;;;;;5111180;28;20027;-67
2022/03/08 07:08:02;;;;;;;22.08;12.80;;;;;;;;;;5109135;28;20024;-67
2022/03/08 07:10:28;;;;;;;19.00;12.15;;;;;;;;;;5108804;28;20103;-68
2022/03/08 07:12:55;;;;;;;24.17;12.45;;;;;;;;;;5108984;28;20058;-68
2022/03/08 07:15:21;;;;;;;19.95;11.98;;;;;;;;;;5109166;28;20412;-67
2022/03/08 07:17:48;;;;;;;20.92;12.88;;;;;;;;;;5110773;28;20557;-68
2022/03/08 07:20:14;;;;;;;22.27;13.15;;;;;;;;;;5092076;28;20032;-68
2022/03/08 07:22:41;;;;;;;21.52;13.00;;;;;;;;;;5108745;28;20444;-67
2022/03/08 07:25:08;;;;;;;21.25;12.25;;;;;;;;;;5109089;28;20032;-68
2022/03/08 07:27:35;;;;;;;20.25;13.00;;;;;;;;;;5108926;28;20031;-67
2022/03/08 07:30:02;;;;;;;21.48;12.70;;;;;;;;;;5110488;28;20597;-68
2022/03/08 07:32:28;;;;;;;22.30;12.57;;;;;;;;;;5108727;28;20062;-67
2022/03/08 07:34:54;;;;;;;22.10;12.98;;;;;;;;;;5108810;28;20080;-68
2022/03/08 07:37:20;;;;;;;23.15;13.35;;;;;;;;;;5108678;28;20803;-68
2022/03/08 07:39:46;;;;;;;18.85;12.18;;;;;;;;;;5109075;28;20012;-67
2022/03/08 07:42:12;;;;;;;23.80;14.05;;;;;;;;;;5108839;28;20027;-67
2022/03/08 07:44:39;;;;;;;20.88;13.30;;;;;;;;;;5110315;28;20028;-67
2022/03/08 07:47:06;;;;;;;22.75;14.02;;;;;;;;;;5105326;28;20019;-66
2022/03/08 07:49:32;;;;;;;21.73;13.95;;;;;;;;;;5108295;28;20027;-66
2022/03/08 07:51:58;;;;;;;21.13;12.13;;;;;;;;;;5109071;28;20043;-67
2022/03/08 07:54:24;;;;;;;19.58;12.32;;;;;;;;;;5108391;28;20048;-67
2022/03/08 07:56:50;;;;;;;19.98;13.50;;;;;;;;;;5110601;28;20432;-68
2022/03/08 07:59:16;;;;;;;21.83;12.07;;;;;;;;;;5108345;28;20027;-68
2022/03/08 08:01:42;;;;;;;21.73;12.90;;;;;;;;;;5108441;28;20063;-66
2022/03/08 08:04:08;;;;;;;20.90;12.68;;;;;;;;;;5108333;28;20027;-67
2022/03/08 08:06:34;;;;;;;21.25;12.32;;;;;;;;;;5108521;28;20041;-66
2022/03/08 08:09:00;;;;;;;20.50;12.68;;;;;;;;;;5110719;28;20058;-66
2022/03/08 08:11:26;;;;;;;20.85;12.40;;;;;;;;;;5108311;28;20464;-68
2022/03/08 08:13:53;;;;;;;20.48;12.02;;;;;;;;;;5107938;28;20020;-66
2022/03/08 08:16:19;;;;;;;20.85;12.38;;;;;;;;;;5090505;28;20028;-66
2022/03/08 08:18:46;;;;;;;21.60;12.77;;;;;;;;;;5108664;28;20039;-67
2022/03/08 08:21:12;;;;;;;21.55;13.27;;;;;;;;;;5108266;28;20028;-66
2022/03/08 08:23:38;;;;;;;20.90;13.10;;;;;;;;;;5109193;28;20035;-67
2022/03/08 08:26:04;;;;;;;21.80;13.43;;;;;;;;;;5108207;28;20024;-67
2022/03/08 08:28:30;;;;;;;23.45;13.90;;;;;;;;;;5091079;28;20126;-68
2022/03/08 08:30:56;;;;;;;21.10;13.35;;;;;;;;;;5108439;28;20028;-68
2022/03/08 08:33:22;;;;;;;19.67;12.48;;;;;;;;;;5108043;28;20051;-68
2022/03/08 08:35:48;;;;;;;21.15;13.40;;;;;;;;;;5097944;28;20457;-67
2022/03/08 08:38:14;;;;;;;23.75;14.45;;;;;;;;;;5096702;28;20512;-67
2022/03/08 08:40:40;;;;;;;23.08;15.13;;;;;;;;;;5095171;28;20064;-68
2022/03/08 08:43:06;;;;;;;24.02;15.45;;;;;;;;;;5077910;28;20051;-67
2022/03/08 08:45:34;;;;;;;24.08;15.38;;;;;;;;;;5090614;28;20051;-68
2022/03/08 08:48:00;;;;;;;28.08;15.20;;;;;;;;;;5094357;28;20024;-67
2022/03/08 08:50:26;;;;;;;27.38;16.00;;;;;;;;;;5073505;28;20154;-67
2022/03/08 08:52:53;;;;;;;25.25;15.95;;;;;;;;;;5094898;28;20544;-67
2022/03/08 08:55:19;;;;;;;23.80;15.88;;;;;;;;;;5094770;28;20392;-67
2022/03/08 08:57:45;;;;;;;24.73;15.63;;;;;;;;;;5092719;28;20020;-67
2022/03/08 09:00:12;;;;;;;25.92;15.85;;;;;;;;;;5095801;28;20024;-68
2022/03/08 09:02:42;;;;;;;23.42;15.52;;;;;;;;;;5098300;28;20032;-66
2022/03/08 09:05:08;;;;;;;23.38;14.88;;;;;;;;;;5098074;28;20028;-67
2022/03/08 09:07:34;;;;;;;23.35;15.38;;;;;;;;;;5098249;28;20031;-66
2022/03/08 09:10:00;;;;;;;26.20;16.10;;;;;;;;;;5098090;28;20254;-67
2022/03/08 09:12:26;;;;;;;26.48;16.05;;;;;;;;;;5094318;28;20038;-66
2022/03/08 09:14:52;;;;;;;23.45;16.33;;;;;;;;;;5111866;28;20099;-68
2022/03/08 09:17:18;;;;;;;25.15;16.10;;;;;;;;;;5099685;28;20038;-68
2022/03/08 09:19:44;;;;;;;24.83;16.00;;;;;;;;;;5104318;27;20031;-67
2022/03/08 09:22:10;;;;;;;24.40;15.57;;;;;;;;;;5097604;28;20032;-66
2022/03/08 09:24:37;;;;;;;24.42;15.05;;;;;;;;;;5094099;28;20020;-66
2022/03/08 09:27:03;;;;;;;25.65;16.67;;;;;;;;;;5096686;28;20024;-66
2022/03/08 09:29:29;;;;;;;23.63;15.63;;;;;;;;;;5098340;28;20386;-66
2022/03/08 09:31:55;;;;;;;26.80;16.20;;;;;;;;;;5101838;28;20030;-68
2022/03/08 09:34:21;;;;;;;22.10;12.90;;;;;;;;;;5106302;28;20088;-67
2022/03/08 09:36:47;;;;;;;19.98;12.65;;;;;;;;;;5077876;28;20036;-67
2022/03/08 09:39:13;;;;;;;23.98;15.68;;;;;;;;;;5095573;28;20039;-66
2022/03/08 09:41:42;;;;;;;22.52;15.50;;;;;;;;;;5088395;28;20034;-67
2022/03/08 09:44:14;;;;;;;23.02;13.73;;;;;;;;;;5100058;28;20024;-68
2022/03/08 09:46:40;;;;;;;15.88;10.88;;;;;;;;;;5080095;28;20130;-68
2022/03/08 09:49:07;;;;;;;24.58;17.45;;;;;;;;;;5097726;28;20020;-66
2022/03/08 09:51:36;;;;;;;25.17;16.25;;;;;;;;;;5093932;28;20507;-66
2022/03/08 09:54:02;;;;;;;22.88;15.23;;;;;;;;;;5096299;28;20028;-68
2022/03/08 09:56:28;;;;;;;25.35;16.98;;;;;;;;;;5088647;28;20508;-67
2022/03/08 09:58:54;;;;;;;22.77;14.88;;;;;;;;;;5101828;28;20028;-67
2022/03/08 10:01:20;;;;;;;24.67;17.00;;;;;;;;;;5097757;28;20552;-67
2022/03/08 10:03:49;;;;;;;19.80;13.57;;;;;;;;;;5095284;28;20130;-67
2022/03/08 10:06:15;;;;;;;18.42;11.55;;;;;;;;;;5094260;28;20057;-67
2022/03/08 10:08:42;;;;;;;22.27;14.82;;;;;;;;;;5096642;28;20082;-67
2022/03/08 10:11:11;;;;;;;27.52;16.30;;;;;;;;;;5097171;28;20028;-67
2022/03/08 10:13:41;;;;;;;21.27;12.45;;;;;;;;;;5101664;28;20016;-67
2022/03/08 10:16:12;;;;;;;28.05;16.85;;;;;;;;;;5108383;28;20027;-68
2022/03/08 10:18:39;;;;;;;22.70;15.50;;;;;;;;;;5092835;28;20056;-67
2022/03/08 10:21:10;;;;;;;25.45;16.48;;;;;;;;;;5094988;28;20050;-67
2022/03/08 10:23:42;;;;;;;24.35;16.23;;;;;;;;;;5107304;28;20066;-67
2022/03/08 10:26:11;;;;;;;22.65;13.52;;;;;;;;;;5099430;28;20028;-67
2022/03/08 10:28:50;;;;;;;18.17;11.50;;;;;;;;;;5096866;28;20040;-66
2022/03/08 10:31:17;;;;;;;22.67;15.00;;;;;;;;;;5096730;28;20119;-67
2022/03/08 10:33:43;;;;;;;21.90;13.05;;;;;;;;;;5094195;28;20392;-68
2022/03/08 10:36:17;;;;;;;24.90;16.42;;;;;;;;;;5075745;28;20020;-68
2022/03/08 10:39:04;;;;;;;19.83;12.52;;;;;;;;;;5096049;28;20022;-68
2022/03/08 10:41:30;;;;;;;23.40;15.50;;;;;;;;;;5097370;28;20050;-68
2022/03/08 10:43:56;;;;;;;14.38;9.93;;;;;;;;;;5095933;28;20024;-68
2022/03/08 10:46:22;;;;;;;21.08;13.52;;;;;;;;;;5095022;28;20484;-68
2022/03/08 10:48:49;;;;;;;26.13;15.65;;;;;;;;;;5075880;28;20548;-68
2022/03/08 10:51:16;;;;;;;21.25;14.10;;;;;;;;;;5108819;28;20031;-68
2022/03/08 10:53:45;;;;;;;26.48;16.52;;;;;;;;;;5077954;28;20042;-67
2022/03/08 10:56:12;;;;;;;21.67;12.95;;;;;;;;;;5095478;28;20429;-67
2022/03/08 10:58:51;;;;;;;20.20;13.77;;;;;;;;;;5096537;28;20111;-70
2022/03/08 11:01:18;;;;;;;23.27;14.10;;;;;;;;;;5096708;28;20109;-71
2022/03/08 11:03:57;;;;;;;22.42;15.18;;;;;;;;;;5087572;28;20031;-70
2022/03/08 11:06:24;;;;;;;25.00;14.95;;;;;;;;;;5110055;28;20035;-71
2022/03/08 11:08:50;;;;;;;19.17;13.20;;;;;;;;;;5089795;28;20035;-70
2022/03/08 11:11:16;;;;;;;22.65;14.25;;;;;;;;;;5109861;28;20023;-71
2022/03/08 11:13:43;;;;;;;24.45;13.32;;;;;;;;;;5092284;28;20434;-70
2022/03/08 11:16:09;;;;;;;22.17;14.07;;;;;;;;;;5109686;28;20028;-70
2022/03/08 11:18:36;;;;;;;19.73;12.60;;;;;;;;;;5109351;28;20015;-70
2022/03/08 11:21:02;;;;;;;23.38;14.40;;;;;;;;;;5110379;28;20032;-71
2022/03/08 11:23:29;;;;;;;22.60;12.98;;;;;;;;;;5106194;28;20415;-70
2022/03/08 11:25:56;;;;;;;22.98;14.18;;;;;;;;;;5107044;28;20012;-71
2022/03/08 11:28:22;;;;;;;21.45;13.70;;;;;;;;;;5109269;28;20373;-70
2022/03/08 11:30:53;;;;;;;22.38;14.77;;;;;;;;;;5091703;28;20016;-71
2022/03/08 11:33:37;;;;;;;24.50;15.55;;;;;;;;;;5107607;28;20381;-69
2022/03/08 11:36:03;;;;;;;21.42;12.57;;;;;;;;;;5110149;28;20020;-69
2022/03/08 11:38:29;;;;;;;19.45;12.20;;;;;;;;;;5107661;28;20034;-69
2022/03/08 11:41:00;;;;;;;24.55;16.05;;;;;;;;;;5100009;28;20028;-68
2022/03/08 11:43:46;;;;;;;22.48;12.82;;;;;;;;;;5095240;28;20106;-68
2022/03/08 11:46:13;;;;;;;15.40;9.98;;;;;;;;;;5094972;28;20063;-70
2022/03/08 11:48:54;;;;;;;25.17;15.68;;;;;;;;;;5105880;28;20043;-71
2022/03/08 11:51:21;;;;;;;18.77;11.75;;;;;;;;;;5092007;28;20020;-68
2022/03/08 11:53:47;;;;;;;22.30;15.70;;;;;;;;;;5086130;28;20019;-68
2022/03/08 11:56:18;;;;;;;20.55;14.32;;;;;;;;;;5086675;28;20408;-68
2022/03/08 11:58:45;;;;;;;20.70;14.68;;;;;;;;;;5100125;28;20070;-68
2022/03/08 12:01:23;;;;;;;21.73;15.25;;;;;;;;;;5094704;28;20035;-66
2022/03/08 12:03:54;;;;;;;81.93;56.15;;;;;;;;;;5093164;28;20024;-65
2022/03/08 12:06:29;;;;;;;113.18;65.35;;;;;;;;;;5091306;28;20084;-65
2022/03/08 12:09:02;;;;;;;29.20;18.88;;;;;;;;;;5109419;28;20023;-67
2022/03/08 12:11:30;;;;;;;23.95;14.80;;;;;;;;;;5108045;28;20020;-69
2022/03/08 12:14:04;;;;;;;50.08;36.63;;;;;;;;;;5089898;28;20080;-68
2022/03/08 12:16:30;;;;;;;20.48;13.77;;;;;;;;;;5102412;28;20035;-68
2022/03/08 12:18:57;;;;;;;28.67;22.15;;;;;;;;;;5092365;28;20036;-67
2022/03/08 12:21:23;;;;;;;25.23;13.90;;;;;;;;;;5072309;28;20061;-71
2022/03/08 12:23:59;;;;;;;20.35;13.23;;;;;;;;;;5085040;28;20256;-71
2022/03/08 12:26:24;;;;;;;18.92;12.30;;;;;;;;;;5093939;28;20028;-70
2022/03/08 12:29:03;;;;;;;22.63;14.90;;;;;;;;;;5094569;28;20105;-71
2022/03/08 12:31:29;;;;;;;;;;;;;;;;;;5094801;28;20447;-71
2022/03/08 12:34:08;;;;;;;21.52;14.38;;;;;;;;;;5078792;28;19943;-71
2022/03/08 12:36:34;;;;;;;22.23;14.13;;;;;;;;;;5094938;28;20046;-71
2022/03/08 12:39:00;;;;;;;23.17;15.48;;;;;;;;;;5098338;28;20020;-71
2022/03/08 12:41:27;;;;;;;21.50;14.93;;;;;;;;;;5098761;28;20044;-71
2022/03/08 12:44:00;;;;;;;21.13;15.10;;;;;;;;;;5098947;28;20376;-71
2022/03/08 12:46:26;;;;;;;22.02;14.68;;;;;;;;;;5098445;28;20034;-71
2022/03/08 12:48:53;;;;;;;23.80;16.05;;;;;;;;;;5110094;28;20388;-71
2022/03/08 12:51:23;;;;;;;22.17;15.30;;;;;;;;;;5077568;28;20500;-71
2022/03/08 12:53:56;;;;;;;24.42;16.45;;;;;;;;;;5098125;28;20108;-71
2022/03/08 12:56:24;;;;;;;19.02;12.40;;;;;;;;;;5080682;28;20036;-71
2022/03/08 12:58:50;;;;;;;25.55;16.33;;;;;;;;;;5107795;27;20542;-72
2022/03/08 13:01:16;;;;;;;25.15;16.42;;;;;;;;;;5118428;27;20124;-66
2022/03/08 13:03:43;;;;;;;25.33;17.27;;;;;;;;;;5095206;28;20024;-66
2022/03/08 13:06:10;;;;;;;25.48;17.15;;;;;;;;;;5077657;28;20027;-66
2022/03/08 13:08:37;;;;;;;21.23;14.30;;;;;;;;;;5098453;28;20069;-66
2022/03/08 13:11:05;;;;;;;28.48;16.65;;;;;;;;;;5098146;28;20502;-65
2022/03/08 13:13:31;;;;;;;25.70;16.73;;;;;;;;;;5101880;28;20027;-66
2022/03/08 13:15:57;;;;;;;23.48;15.95;;;;;;;;;;5109793;28;20260;-67
2022/03/08 13:18:24;;;;;;;23.50;16.13;;;;;;;;;;5094382;28;20074;-67
2022/03/08 13:20:51;;;;;;;25.50;15.18;;;;;;;;;;5098059;28;20388;-66
2022/03/08 13:23:18;;;;;;;17.30;11.37;;;;;;;;;;5078295;28;20039;-66
2022/03/08 13:25:46;;;;;;;23.20;15.23;;;;;;;;;;5096385;28;20025;-65
2022/03/08 13:28:14;;;;;;;21.13;13.38;;;;;;;;;;5095647;28;20023;-65
2022/03/08 13:30:42;;;;;;;22.55;15.93;;;;;;;;;;5092849;28;20051;-66
2022/03/08 13:33:09;;;;;;;21.05;14.20;;;;;;;;;;5094118;28;20016;-65
2022/03/08 13:35:36;;;;;;;24.20;15.70;;;;;;;;;;5105394;28;20023;-66
2022/03/08 13:38:02;;;;;;;21.38;13.60;;;;;;;;;;5101251;28;20024;-66
2022/03/08 13:40:31;;;;;;;22.05;14.13;;;;;;;;;;5097828;28;20020;-66
2022/03/08 13:42:57;;;;;;;;;;;;;;;;;;5097421;28;20080;-66
2022/03/08 13:45:23;;;;;;;22.23;13.98;;;;;;;;;;5093843;28;19959;-67
2022/03/08 13:47:52;;;;;;;24.30;15.52;;;;;;;;;;5097230;28;20027;-66
2022/03/08 13:50:19;;;;;;;20.30;15.15;;;;;;;;;;5097106;28;20427;-66
2022/03/08 13:52:56;;;;;;;21.65;15.30;;;;;;;;;;5097834;28;20031;-66
2022/03/08 13:55:27;;;;;;;21.23;14.85;;;;;;;;;;5097806;28;20044;-67
2022/03/08 13:57:54;;;;;;;22.50;15.82;;;;;;;;;;5096071;28;20070;-66
2022/03/08 14:00:20;;;;;;;21.67;15.23;;;;;;;;;;5094269;28;20111;-66
2022/03/08 14:02:47;;;;;;;21.75;15.52;;;;;;;;;;5097123;28;20032;-67
2022/03/08 14:05:13;;;;;;;21.02;14.90;;;;;;;;;;5097143;28;20028;-67
2022/03/08 14:07:39;;;;;;;21.30;15.00;;;;;;;;;;5079922;28;20542;-65
2022/03/08 14:10:05;;;;;;;21.55;15.35;;;;;;;;;;5096657;28;20042;-66
2022/03/08 14:12:44;;;;;;;23.50;16.17;;;;;;;;;;5093145;28;20066;-65
2022/03/08 14:15:10;;;;;;;19.83;14.80;;;;;;;;;;5108577;28;20077;-67
2022/03/08 14:17:36;;;;;;;22.27;15.50;;;;;;;;;;5097660;28;20032;-66